createdAt,value
2022-08-26T05:06:39.424Z,16.52
2022-08-26T05:11:42.372Z,16.25
2022-08-26T05:16:44.643Z,16.38
2022-08-26T05:21:50.084Z,15.95
2022-08-26T05:26:53.134Z,21.05
2022-08-26T05:31:55.980Z,27.88
2022-08-26T05:36:58.981Z,27.52
2022-08-26T05:42:01.327Z,20.13
2022-08-26T05:47:04.604Z,19.05
2022-08-26T05:52:08.192Z,23.95
2022-08-26T05:57:13.848Z,25.35
2022-08-26T06:02:16.210Z,41.65
2022-08-26T06:07:38.916Z,34.25
2022-08-26T06:12:42.610Z,19.27
2022-08-26T06:17:46.502Z,17.20
2022-08-26T06:23:07.371Z,24.17
2022-08-26T06:28:10.342Z,21.10
2022-08-26T06:33:16.264Z,21.80
2022-08-26T06:38:18.560Z,21.13
2022-08-26T06:43:26.491Z,20.80
2022-08-26T06:48:28.941Z,25.27
2022-08-26T06:53:31.667Z,17.83
2022-08-26T06:58:35.314Z,16.27
2022-08-26T07:03:39.755Z,14.48
2022-08-26T07:08:42.210Z,15.88
2022-08-26T07:13:44.787Z,20.58
2022-08-26T07:18:48.905Z,16.13
2022-08-26T07:23:56.387Z,15.30
2022-08-26T07:29:01.755Z,17.43
2022-08-26T07:34:04.494Z,14.48
2022-08-26T07:39:07.583Z,14.15
2022-08-26T07:44:10.211Z,17.10
2022-08-26T07:49:12.609Z,13.98
2022-08-26T07:54:15.310Z,12.70
2022-08-26T07:59:18.494Z,15.75
2022-08-26T08:04:26.040Z,17.45
2022-08-26T08:09:28.835Z,18.85
2022-08-26T08:14:31.090Z,14.82
2022-08-26T08:19:36.798Z,13.02
2022-08-26T08:24:41.417Z,11.83
2022-08-26T08:29:44.541Z,14.45
2022-08-26T08:34:47.198Z,9.55
2022-08-26T08:39:49.790Z,10.68
2022-08-26T08:44:57.236Z,9.68
2022-08-26T08:50:06.638Z,10.17
2022-08-26T08:55:10.375Z,8.45
2022-08-26T09:00:19.351Z,7.38
2022-08-26T09:05:32.027Z,8.77
2022-08-26T09:10:40.403Z,7.85
2022-08-26T09:15:54.759Z,8.50
2022-08-26T09:21:00.464Z,10.05
2022-08-26T09:26:14.231Z,10.70
2022-08-26T09:31:25.156Z,12.63
2022-08-26T09:36:42.442Z,9.82
2022-08-26T09:41:44.717Z,9.70
2022-08-26T09:47:01.270Z,13.20
2022-08-26T09:52:11.237Z,13.27
2022-08-26T09:57:20.858Z,15.95
2022-08-26T10:02:32.598Z,16.55
2022-08-26T10:07:39.269Z,10.85
2022-08-26T10:12:58.408Z,8.57
2022-08-26T10:18:14.243Z,9.80
2022-08-26T10:23:25.780Z,8.38
2022-08-26T10:28:31.746Z,13.88
2022-08-26T10:33:34.073Z,11.50
2022-08-26T10:38:41.101Z,8.77
2022-08-26T10:43:53.806Z,12.52
2022-08-26T10:49:03.310Z,16.27
2022-08-26T10:54:27.069Z,9.27
2022-08-26T10:59:53.079Z,8.35
2022-08-26T11:05:06.672Z,8.52
2022-08-26T11:10:08.941Z,8.88
2022-08-26T11:15:36.828Z,8.73
2022-08-26T11:20:47.212Z,9.20
2022-08-26T11:26:01.292Z,9.15
2022-08-26T11:31:09.591Z,8.65
2022-08-26T11:36:28.649Z,10.60
2022-08-26T11:41:32.960Z,9.95
2022-08-26T11:46:37.611Z,9.65
2022-08-26T11:51:41.897Z,9.70
2022-08-26T11:56:50.282Z,9.75
2022-08-26T12:01:54.614Z,9.00
2022-08-26T12:06:58.668Z,10.57
2022-08-26T12:12:23.011Z,10.43
2022-08-26T12:17:28.372Z,9.00
2022-08-26T12:22:38.774Z,10.13
2022-08-26T12:27:47.872Z,10.07
2022-08-26T12:33:22.119Z,9.70
2022-08-26T12:43:45.920Z,9.80
2022-08-26T12:48:49.734Z,10.70
2022-08-26T12:53:53.551Z,10.63
2022-08-26T12:59:25.259Z,10.98
2022-08-26T13:04:41.114Z,11.68
2022-08-26T13:09:43.568Z,10.93
2022-08-26T13:14:47.165Z,11.25
2022-08-26T13:19:49.538Z,7.38
2022-08-26T13:24:55.478Z,7.10
2022-08-26T13:29:59.160Z,6.32
2022-08-26T13:35:05.706Z,6.32
2022-08-26T13:40:09.222Z,7.20
2022-08-26T13:45:11.964Z,7.25
2022-08-26T13:50:14.817Z,6.30
2022-08-26T13:55:17.303Z,6.32
2022-08-26T14:00:20.517Z,5.95
2022-08-26T14:05:23.168Z,6.15
2022-08-26T14:10:26.642Z,5.32
2022-08-26T14:15:29.257Z,6.00
2022-08-26T14:20:33.219Z,5.75
2022-08-26T14:25:35.544Z,5.50
2022-08-26T14:30:41.238Z,5.10
2022-08-26T14:35:47.180Z,5.65
2022-08-26T14:40:51.247Z,4.72
2022-08-26T14:45:53.561Z,4.55
2022-08-26T14:50:55.906Z,4.55
2022-08-26T14:55:58.269Z,5.13
2022-08-26T15:01:03.212Z,4.75
2022-08-26T15:06:07.482Z,4.90
2022-08-26T15:11:10.395Z,5.03
2022-08-26T15:16:13.227Z,4.95
2022-08-26T15:21:15.620Z,5.20
2022-08-26T15:26:19.513Z,5.10
2022-08-26T15:31:31.133Z,4.90
2022-08-26T15:36:34.294Z,4.60
2022-08-26T15:41:37.267Z,4.88
2022-08-26T15:46:40.814Z,4.90
2022-08-26T15:51:45.656Z,6.22
2022-08-26T15:56:50.677Z,5.30
2022-08-26T16:01:53.235Z,5.18
2022-08-26T16:06:55.747Z,4.40
2022-08-26T16:11:58.495Z,5.03
2022-08-26T16:17:01.116Z,5.05
2022-08-26T16:22:04.919Z,5.85
2022-08-26T16:27:07.284Z,5.40
2022-08-26T16:32:09.659Z,5.35
2022-08-26T16:37:12.021Z,5.70
2022-08-26T16:42:14.340Z,7.13
2022-08-26T16:47:18.489Z,6.25
2022-08-26T16:52:20.849Z,5.75
2022-08-26T16:57:23.296Z,5.47
2022-08-26T17:02:25.645Z,6.43
2022-08-26T17:07:29.090Z,6.68
2022-08-26T17:12:31.597Z,6.85
2022-08-26T17:17:34.672Z,7.60
2022-08-26T17:22:43.802Z,7.07
2022-08-26T17:27:46.487Z,8.30
2022-08-26T17:32:49.627Z,7.55
2022-08-26T17:37:52.098Z,8.27
2022-08-26T17:42:54.622Z,7.65
2022-08-26T17:47:57.173Z,8.30
2022-08-26T17:52:59.468Z,8.25
2022-08-26T17:58:03.924Z,17.90
2022-08-26T18:03:09.520Z,20.08
2022-08-26T18:08:11.809Z,15.63
2022-08-26T18:13:14.954Z,12.80
2022-08-26T18:18:17.243Z,12.52
2022-08-26T18:23:19.537Z,11.05
2022-08-26T18:28:21.960Z,10.43
2022-08-26T18:33:24.360Z,10.07
2022-08-26T18:38:28.315Z,9.02
2022-08-26T18:43:30.726Z,8.65
2022-08-26T18:48:33.632Z,8.40
2022-08-26T18:53:35.967Z,8.90
2022-08-26T18:58:38.253Z,7.95
2022-08-26T19:03:41.690Z,8.98
2022-08-26T19:08:44.961Z,10.05
2022-08-26T19:13:47.344Z,10.63
2022-08-26T19:18:51.668Z,10.38
2022-08-26T19:23:58.879Z,10.10
2022-08-26T19:29:01.238Z,10.20
2022-08-26T19:34:05.277Z,10.50
2022-08-26T19:39:08.356Z,10.82
2022-08-26T19:44:40.456Z,11.02
2022-08-26T19:49:42.823Z,9.68
2022-08-26T19:54:45.079Z,10.57
2022-08-26T19:59:47.433Z,11.30
2022-08-26T20:04:49.707Z,11.38
2022-08-26T20:09:52.004Z,13.65
2022-08-26T20:14:55.128Z,16.25
2022-08-26T20:20:31.642Z,14.52
2022-08-26T20:25:35.976Z,13.63
2022-08-26T20:30:38.317Z,12.65
2022-08-26T20:35:40.634Z,22.13
2022-08-26T20:40:43.662Z,11.77
2022-08-26T20:45:46.392Z,10.77
2022-08-26T20:50:48.744Z,10.30
2022-08-26T20:55:53.725Z,10.65
2022-08-26T21:00:56.708Z,10.70
2022-08-26T21:05:59.090Z,11.70
2022-08-26T21:11:02.181Z,10.77
2022-08-26T21:16:07.162Z,9.90
2022-08-26T21:21:09.966Z,14.85
2022-08-26T21:26:14.512Z,19.63
2022-08-26T21:31:19.464Z,10.82
2022-08-26T21:36:21.896Z,9.65
2022-08-26T21:41:25.869Z,12.15
2022-08-26T21:46:29.833Z,11.18
2022-08-26T21:51:35.113Z,10.88
2022-08-26T21:56:39.919Z,10.25
